This is the latest recevied weather packets stored in our database for station/object KG4K-13. If no packets are shown the sender has not sent any weather packets the latest 10 day(s).
| Time | Temp. | Humidity | Pressure | Rain* | Wind** | Luminosity | Snow |
|---|---|---|---|---|---|---|---|
| 1777881920 | 12.22° C | 62% | 1016 hPa | 0 mm | - | 0 W/m² | - |
| 1777872322 | 10° C | 70% | 1016.2 hPa | 0 mm | - | 0 W/m² | - |
| 1777867515 | 8.33° C | 84% | 1016.2 hPa | 0 mm | - | 0 W/m² | - |
| 1777851917 | 15.56° C | 38% | 1014.6 hPa | 0 mm | - | 12 W/m² | - |
| 1777850118 | 17.22° C | 34% | 1014.5 hPa | 0 mm | - | 54 W/m² | - |
| 1777843517 | 16.67° C | 35% | 1014.6 hPa | 0 mm | - | 310 W/m² | - |
| 1777841117 | 16.11° C | 37% | 1014.7 hPa | 0 mm | - | 88 W/m² | - |
| 1777839338 | 16.11° C | 37% | 1014.9 hPa | 0 mm | - | 632 W/m² | - |
| 1777834516 | 15° C | 38% | 1015.9 hPa | 0 mm | - | 898 W/m² | - |
| 1777831517 | 14.44° C | 40% | 1016.1 hPa | 0 mm | - | 967 W/m² | - |
| 1777818958 | 10.56° C | 45% | 1017.1 hPa | 0 mm | - | 711 W/m² | - |
| 1777817118 | 10° C | 47% | 1017.3 hPa | 0 mm | - | 439 W/m² | - |
| 1777815318 | 9.44° C | 52% | 1017.1 hPa | 0 mm | - | 567 W/m² | - |
| 1777814116 | 8.89° C | 53% | 1017.2 hPa | 0 mm | - | 503 W/m² | - |
| 1777813516 | 8.89° C | 54% | 1017.1 hPa | 0 mm | - | 465 W/m² | - |
| 1777812316 | 8.33° C | 57% | 1017.1 hPa | 0 mm | - | 53 W/m² | - |
| 1777811136 | 7.78° C | 58% | 1016.8 hPa | 0 mm | - | 48 W/m² | - |
| 1777809917 | 7.78° C | 62% | 1016.6 hPa | 0 mm | - | 43 W/m² | - |
| 1777809317 | 7.22° C | 62% | 1016.5 hPa | 0 mm | - | 40 W/m² | - |
| 1777808117 | 7.22° C | 63% | 1016.4 hPa | 0 mm | - | 36 W/m² | - |
| 1777806917 | 6.67° C | 64% | 1016.2 hPa | 0 mm | - | 31 W/m² | - |
| 1777803918 | 6.67° C | 68% | 1015.5 hPa | 0 mm | - | 9 W/m² | - |
| 1777800919 | 6.67° C | 69% | 1014.8 hPa | 0 mm | - | 0 W/m² | - |
| 1777799728 | 6.67° C | 70% | 1014.7 hPa | 0 mm | - | 0 W/m² | - |
| 1777794920 | 7.78° C | 67% | 1014.3 hPa | 0 mm | - | 0 W/m² | - |
* Rain latest hour (hover to see other rain measurements)
** Current wind speed in m/s (hover to see current wind gust speed)